Lotheni — ZR8530 — position and weather

sailwx.info

Track history (hours):
 
Tides and Currents Weather Stations Pressure Air Temp Water Temp Dewpoint Dewpoint Depression Visibility Wind Speed Wind Dir Waves Ship Positions

Lotheni

Last reported at 2017-Jan-18 07:33 UTC. Time now 2017-Jan-18 07:57 UTC.
Position S 29°53' E 031°02'.

Type: Tug. MMSI: 601135800.

Date/timePositionNaut miles runAvg speedWind from/ knotsBaromVisibWave heightAir tempDewpointWater temp
2017-Jan-18 07:33S 29°53' E 031°02'1 0.5
2017-Jan-18 06:31S 29°53' E 031°03'3 3.3
2017-Jan-18 05:33S 29°50' E 031°05'3 3.2
2017-Jan-18 04:33S 29°52' E 031°02'0 0.0
2017-Jan-18 03:33S 29°52' E 031°02'0 0.0
2017-Jan-18 02:33S 29°52' E 031°02'1 0.6
2017-Jan-18 01:33S 29°52' E 031°02'1 0.6
2017-Jan-18 00:33S 29°52' E 031°02'0 0.0
2017-Jan-17 23:33S 29°52' E 031°02'0 0.0
2017-Jan-17 22:21S 29°52' E 031°02'1 1.0
2017-Jan-17 21:33S 29°53' E 031°02'1 0.7
2017-Jan-17 20:32S 29°52' E 031°03'1 0.6
2017-Jan-17 19:33S 29°52' E 031°02'1 0.6
2017-Jan-17 18:33S 29°52' E 031°02'1 0.9
2017-Jan-17 17:32S 29°53' E 031°02'1 0.9
2017-Jan-17 16:32S 29°52' E 031°02'0 0.0
2017-Jan-17 15:32S 29°52' E 031°02'0 0.0
2017-Jan-17 14:32S 29°52' E 031°02'0 0.0
2017-Jan-17 13:32S 29°52' E 031°02'0 0.0
2017-Jan-17 12:29S 29°52' E 031°02'0 0.0
2017-Jan-17 11:32S 29°52' E 031°02'2 0.9
2017-Jan-17 09:21S 29°53' E 031°00'2 2.2
2017-Jan-17 08:33S 29°52' E 031°02'1 0.9
2017-Jan-17 07:33S 29°52' E 031°03'2 1.7
2017-Jan-17 06:33S 29°52' E 031°01'1 0.7
2017-Jan-17 05:33S 29°52' E 031°02'1 0.5
2017-Jan-17 04:33S 29°52' E 031°02'0 0.0
2017-Jan-17 03:33S 29°52' E 031°02'0 0.0
2017-Jan-17 02:33S 29°52' E 031°02'0 0.0
2017-Jan-17 01:33S 29°52' E 031°02'0 0.0
2017-Jan-17 00:33S 29°52' E 031°02'0 0.0
2017-Jan-16 23:33S 29°52' E 031°02'0 0.0
2017-Jan-16 22:33S 29°52' E 031°02'0 0.0
2017-Jan-16 21:33S 29°52' E 031°02'1 1.4
2017-Jan-16 20:31S 29°53' E 031°03'1 1.5
2017-Jan-16 19:33S 29°52' E 031°02'0 0.0
2017-Jan-16 18:33S 29°52' E 031°02'1 0.7
2017-Jan-16 17:33S 29°52' E 031°02'0 0.5
2017-Jan-16 16:33S 29°52' E 031°02'0 0.4
2017-Jan-16 15:32S 29°52' E 031°02'0 0.0
2017-Jan-16 14:32S 29°52' E 031°02'0 0.0
2017-Jan-16 13:32S 29°52' E 031°02'0 0.0
2017-Jan-16 12:32S 29°52' E 031°02'0 0.0
2017-Jan-16 11:26S 29°52' E 031°02'0 0.0
2017-Jan-16 10:32S 29°52' E 031°02'0 0.0
2017-Jan-16 09:32S 29°52' E 031°02'0 0.0
2017-Jan-16 08:32S 29°52' E 031°02'0 0.0
2017-Jan-16 07:32S 29°52' E 031°02'0 0.0
2017-Jan-16 06:32S 29°52' E 031°02'0 0.0
2017-Jan-16 05:32S 29°52' E 031°02'0 0.0
2017-Jan-16 04:32S 29°52' E 031°02'0 0.0
2017-Jan-16 03:32S 29°52' E 031°02'0 0.0
2017-Jan-16 02:32S 29°52' E 031°02'0 0.0
2017-Jan-16 01:32S 29°52' E 031°02'0 0.0
2017-Jan-16 00:32S 29°52' E 031°02'0 0.0
2017-Jan-15 23:32S 29°52' E 031°02'0 0.0
2017-Jan-15 22:20S 29°52' E 031°02'0 0.0
2017-Jan-15 21:32S 29°52' E 031°02'0 0.0
2017-Jan-15 20:32S 29°52' E 031°02'1 1.4
2017-Jan-15 19:33S 29°53' E 031°02'1 1.4
2017-Jan-15 18:32S 29°52' E 031°02'1 0.8
2017-Jan-15 17:33S 29°52' E 031°02'1 0.8
2017-Jan-15 16:32S 29°52' E 031°02'0 0.0
2017-Jan-15 15:32S 29°52' E 031°02'0 0.0
2017-Jan-15 14:05S 29°52' E 031°02'0 0.0
2017-Jan-15 13:23S 29°52' E 031°02'1 1.6
2017-Jan-15 12:32S 29°53' E 031°00'1 1.3
2017-Jan-15 11:30S 29°52' E 031°02'0 0.0
2017-Jan-15 09:21S 29°52' E 031°02'0 0.0
2017-Jan-15 08:24S 29°52' E 031°02'0 0.0
2017-Jan-15 07:33S 29°52' E 031°02'1 1.3
2017-Jan-15 06:29S 29°53' E 031°03'1 1.4
2017-Jan-15 05:33S 29°52' E 031°02'0 0.2
2017-Jan-15 04:32S 29°52' E 031°02'0 0.0
2017-Jan-15 03:32S 29°52' E 031°02'0 0.0
2017-Jan-15 02:32S 29°52' E 031°02'1 1.0
2017-Jan-15 01:32S 29°53' E 031°02'1 1.0
2017-Jan-15 00:31S 29°52' E 031°02'0 0.0
2017-Jan-14 23:31S 29°52' E 031°02'0 0.3
2017-Jan-14 22:33S 29°52' E 031°02'0 0.3
2017-Jan-14 21:34S 29°52' E 031°02'1 1.0
2017-Jan-14 20:32S 29°53' E 031°01'1 1.4
2017-Jan-14 19:33S 29°52' E 031°03'1 1.1
2017-Jan-14 18:33S 29°53' E 031°02'1 1.1
2017-Jan-14 17:32S 29°52' E 031°02'0 0.0
2017-Jan-14 16:29S 29°52' E 031°02'0 0.0
2017-Jan-14 15:32S 29°52' E 031°02'0 0.0
2017-Jan-14 14:26S 29°52' E 031°02'0 0.5
2017-Jan-14 13:33S 29°52' E 031°02'0 0.2
2017-Jan-14 12:33S 29°52' E 031°02'1 0.6
2017-Jan-14 11:33S 29°52' E 031°03'1 0.7
2017-Jan-14 10:31S 29°52' E 031°02'0 0.4
2017-Jan-14 09:28S 29°52' E 031°02'1 1.0
2017-Jan-14 08:33S 29°53' E 031°01'1 0.7
2017-Jan-14 07:20S 29°53' E 031°00'2 2.3
2017-Jan-14 06:33S 29°53' E 031°02'1 0.7
2017-Jan-14 05:33S 29°53' E 031°02'1 0.9
2017-Jan-14 04:33S 29°52' E 031°02'0 0.0
2017-Jan-14 03:33S 29°52' E 031°02'0 0.0
2017-Jan-13 23:26S 29°52' E 031°02'0 0.0
2017-Jan-13 22:30S 29°52' E 031°02'0 0.5
2017-Jan-13 21:33S 29°52' E 031°02'1 1.0
2017-Jan-13 20:33S 29°53' E 031°03'2 2.0
2017-Jan-13 19:32S 29°52' E 031°01'2 1.6
2017-Jan-13 18:30S 29°53' E 031°03'1 0.6
2017-Jan-13 17:33S 29°53' E 031°03'1 1.1
2017-Jan-13 16:33S 29°52' E 031°02'0 0.2
2017-Jan-13 15:33S 29°52' E 031°02'1 0.9
2017-Jan-13 14:33S 29°53' E 031°01'1 1.3
2017-Jan-13 13:33S 29°52' E 031°03'0 0.3
2017-Jan-13 12:33S 29°52' E 031°02'0 0.1
2017-Jan-13 11:31S 29°52' E 031°02'1 0.8
2017-Jan-13 10:32S 29°52' E 031°02'0 0.0
2017-Jan-13 09:33S 29°52' E 031°02'1 1.1
2017-Jan-13 08:33S 29°53' E 031°03'2 1.8
2017-Jan-13 07:31S 29°52' E 031°01'1 1.3
2017-Jan-13 06:29S 29°52' E 031°02'0 0.0
2017-Jan-13 05:32S 29°52' E 031°02'0 0.0
2017-Jan-13 04:29S 29°52' E 031°02'0 0.0
2017-Jan-13 03:32S 29°52' E 031°02'0 0.0
2017-Jan-13 02:29S 29°52' E 031°02'0 0.0
2017-Jan-12 23:29S 29°52' E 031°02'1 1.5
2017-Jan-12 22:33S 29°53' E 031°03'1 1.1
2017-Jan-12 21:33S 29°52' E 031°02'0 0.4
2017-Jan-12 20:31S 29°52' E 031°02'1 0.9
2017-Jan-12 19:33S 29°53' E 031°02'1 0.6
2017-Jan-12 18:23S 29°53' E 031°02'1 1.5
2017-Jan-12 17:26S 29°52' E 031°02'0 0.0
2017-Jan-12 15:14S 29°52' E 031°02'0 0.5
2017-Jan-12 14:33S 29°52' E 031°02'1 0.8
2017-Jan-12 13:33S 29°53' E 031°02'1 1.2
2017-Jan-12 12:31S 29°52' E 031°03'1 1.1
2017-Jan-12 11:33S 29°53' E 031°02'1 0.7
2017-Jan-12 10:08S 29°52' E 031°02'0 0.0
2017-Jan-12 08:14S 29°52' E 031°02'2 2.3
2017-Jan-12 07:32S 29°53' E 031°00'1 1.1
2017-Jan-12 06:33S 29°52' E 031°01'1 0.2
2017-Jan-12 04:14S 29°52' E 031°02'0 0.0
2017-Jan-12 03:32S 29°52' E 031°02'0 0.0
2017-Jan-12 02:08S 29°52' E 031°02'0 0.0
2017-Jan-12 01:29S 29°52' E 031°02'0 0.0
2017-Jan-12 00:26S 29°52' E 031°02'0 0.0
2017-Jan-11 22:21S 29°52' E 031°02'0 0.0
2017-Jan-11 21:32S 29°52' E 031°02'0 0.3
2017-Jan-11 20:33S 29°52' E 031°02'1 0.8
2017-Jan-11 19:28S 29°52' E 031°03'1 1.1
2017-Jan-11 18:33S 29°53' E 031°02'1 0.6
2017-Jan-11 17:33S 29°53' E 031°02'1 1.0
2017-Jan-11 16:32S 29°52' E 031°02'0 0.0
2017-Jan-11 15:32S 29°52' E 031°02'0 0.0
2017-Jan-11 14:17S 29°52' E 031°02'0 0.0
2017-Jan-11 13:14S 29°52' E 031°02'0 0.6
2017-Jan-11 12:33S 29°52' E 031°02'0 0.4
2017-Jan-11 11:33S 29°52' E 031°02'0 0.0
2017-Jan-11 08:33S 29°52' E 031°02'1 1.4
2017-Jan-11 07:33S 29°53' E 031°03'2 2.0
2017-Jan-11 06:32S 29°52' E 031°01'1 1.3
2017-Jan-11 05:32S 29°52' E 031°02'0 0.0
2017-Jan-11 04:32S 29°52' E 031°02'0 0.0
2017-Jan-11 03:32S 29°52' E 031°02'0 0.0
2017-Jan-11 02:29S 29°52' E 031°02'0 0.0
2017-Jan-11 01:26S 29°52' E 031°02'0 0.0
2017-Jan-11 00:32S 29°52' E 031°02'0 0.0
2017-Jan-10 21:32S 29°52' E 031°02'0 0.0
2017-Jan-10 20:32S 29°52' E 031°02'0 0.0
2017-Jan-10 19:29S 29°52' E 031°02'1 0.8
2017-Jan-10 18:33S 29°52' E 031°02'1 0.8
2017-Jan-10 17:30S 29°52' E 031°02'0 0.0
2017-Jan-10 16:33S 29°52' E 031°02'0 0.0
2017-Jan-10 15:34S 29°52' E 031°02'1 1.3
2017-Jan-10 14:28S 29°53' E 031°00'1 1.3
2017-Jan-10 13:20S 29°53' E 031°02'1 1.2
2017-Jan-10 12:33S 29°53' E 031°03'1 1.3
2017-Jan-10 11:33S 29°52' E 031°02'0 0.1
2017-Jan-10 10:33S 29°52' E 031°02'0 0.0
2017-Jan-10 09:33S 29°52' E 031°02'0 0.0
2017-Jan-10 08:33S 29°52' E 031°02'0 0.1
2017-Jan-10 07:32S 29°52' E 031°02'0 0.0
2017-Jan-10 06:32S 29°52' E 031°02'0 0.0
2017-Jan-10 05:32S 29°52' E 031°02'0 0.0
2017-Jan-10 04:32S 29°52' E 031°02'0 0.0
2017-Jan-10 03:32S 29°52' E 031°02'0 0.0
2017-Jan-10 02:08S 29°52' E 031°02'0 0.0
2017-Jan-10 01:32S 29°52' E 031°02'0 0.0
2017-Jan-10 00:26S 29°52' E 031°02'1 1.1
2017-Jan-09 23:33S 29°53' E 031°01'1 0.8
2017-Jan-09 22:14S 29°52' E 031°02'1 0.9
2017-Jan-09 21:24S 29°52' E 031°02'1 0.2
2017-Jan-09 18:25S 29°52' E 031°02'1 1.4
2017-Jan-09 17:33S 29°53' E 031°03'1 1.1
2017-Jan-09 16:30S 29°52' E 031°02'0 0.0
2017-Jan-09 15:30S 29°52' E 031°02'0 0.0
2017-Jan-09 14:30S 29°52' E 031°02'1 1.3
2017-Jan-09 13:31S 29°53' E 031°01'1 1.3
2017-Jan-09 12:34S 29°52' E 031°02'0 0.0
2017-Jan-09 09:22S 29°52' E 031°02'0 0.0
2017-Jan-09 07:28S 29°52' E 031°02'0 0.0
2017-Jan-09 05:28S 29°52' E 031°02'0 0.0
2017-Jan-09 04:31S 29°52' E 031°02'0 0.0
2017-Jan-09 03:31S 29°52' E 031°02'0 0.0
2017-Jan-09 02:31S 29°52' E 031°02'0 0.0
2017-Jan-09 01:31S 29°52' E 031°02'0 0.0
2017-Jan-09 00:31S 29°52' E 031°02'0 0.0
2017-Jan-08 23:28S 29°52' E 031°02'1 0.7
2017-Jan-08 21:33S 29°53' E 031°03'1 1.3
2017-Jan-08 20:32S 29°52' E 031°02'0 0.0
2017-Jan-08 19:26S 29°52' E 031°02'0 0.0
2017-Jan-08 18:26S 29°52' E 031°02'1 1.5
2017-Jan-08 17:33S 29°53' E 031°03'1 1.2
2017-Jan-08 16:27S 29°52' E 031°02'0 0.0
2017-Jan-08 15:30S 29°52' E 031°02'0 0.0
2017-Jan-08 14:21S 29°52' E 031°02'0 0.0
2017-Jan-08 13:30S 29°52' E 031°02'0 0.0
2017-Jan-08 12:32S 29°52' E 031°02'1 1.4
2017-Jan-08 11:31S 29°53' E 031°02'1 0.6
2017-Jan-08 10:33S 29°53' E 031°01'1 0.9
2017-Jan-08 09:33S 29°52' E 031°02'1 0.4
2017-Jan-08 08:04S 29°52' E 031°02'  
Track history (hours):
 
Tides and Currents Weather Stations Pressure Air Temp Water Temp Dewpoint Dewpoint Depression Visibility Wind Speed Wind Dir Waves Ship Positions

Lotheni

Last reported at 2017-Jan-18 07:33 UTC. Time now 2017-Jan-18 07:57 UTC.
Position S 29°53' E 031°02'.

Type: Tug. MMSI: 601135800.

Date/timePositionNaut miles runAvg speedWind from/ knotsBaromVisibWave heightAir tempDewpointWater temp
2017-Jan-18 07:33S 29°53' E 031°02'1 0.5
2017-Jan-18 06:31S 29°53' E 031°03'3 3.3
2017-Jan-18 05:33S 29°50' E 031°05'3 3.2
2017-Jan-18 04:33S 29°52' E 031°02'0 0.0
2017-Jan-18 03:33S 29°52' E 031°02'0 0.0
2017-Jan-18 02:33S 29°52' E 031°02'1 0.6
2017-Jan-18 01:33S 29°52' E 031°02'1 0.6
2017-Jan-18 00:33S 29°52' E 031°02'0 0.0
2017-Jan-17 23:33S 29°52' E 031°02'0 0.0
2017-Jan-17 22:21S 29°52' E 031°02'1 1.0
2017-Jan-17 21:33S 29°53' E 031°02'1 0.7
2017-Jan-17 20:32S 29°52' E 031°03'1 0.6
2017-Jan-17 19:33S 29°52' E 031°02'1 0.6
2017-Jan-17 18:33S 29°52' E 031°02'1 0.9
2017-Jan-17 17:32S 29°53' E 031°02'1 0.9
2017-Jan-17 16:32S 29°52' E 031°02'0 0.0
2017-Jan-17 15:32S 29°52' E 031°02'0 0.0
2017-Jan-17 14:32S 29°52' E 031°02'0 0.0
2017-Jan-17 13:32S 29°52' E 031°02'0 0.0
2017-Jan-17 12:29S 29°52' E 031°02'0 0.0
2017-Jan-17 11:32S 29°52' E 031°02'2 0.9
2017-Jan-17 09:21S 29°53' E 031°00'2 2.2
2017-Jan-17 08:33S 29°52' E 031°02'1 0.9
2017-Jan-17 07:33S 29°52' E 031°03'2 1.7
2017-Jan-17 06:33S 29°52' E 031°01'1 0.7
2017-Jan-17 05:33S 29°52' E 031°02'1 0.5
2017-Jan-17 04:33S 29°52' E 031°02'0 0.0
2017-Jan-17 03:33S 29°52' E 031°02'0 0.0
2017-Jan-17 02:33S 29°52' E 031°02'0 0.0
2017-Jan-17 01:33S 29°52' E 031°02'0 0.0
2017-Jan-17 00:33S 29°52' E 031°02'0 0.0
2017-Jan-16 23:33S 29°52' E 031°02'0 0.0
2017-Jan-16 22:33S 29°52' E 031°02'0 0.0
2017-Jan-16 21:33S 29°52' E 031°02'1 1.4
2017-Jan-16 20:31S 29°53' E 031°03'1 1.5
2017-Jan-16 19:33S 29°52' E 031°02'0 0.0
2017-Jan-16 18:33S 29°52' E 031°02'1 0.7
2017-Jan-16 17:33S 29°52' E 031°02'0 0.5
2017-Jan-16 16:33S 29°52' E 031°02'0 0.4
2017-Jan-16 15:32S 29°52' E 031°02'0 0.0
2017-Jan-16 14:32S 29°52' E 031°02'0 0.0
2017-Jan-16 13:32S 29°52' E 031°02'0 0.0
2017-Jan-16 12:32S 29°52' E 031°02'0 0.0
2017-Jan-16 11:26S 29°52' E 031°02'0 0.0
2017-Jan-16 10:32S 29°52' E 031°02'0 0.0
2017-Jan-16 09:32S 29°52' E 031°02'0 0.0
2017-Jan-16 08:32S 29°52' E 031°02'0 0.0
2017-Jan-16 07:32S 29°52' E 031°02'0 0.0
2017-Jan-16 06:32S 29°52' E 031°02'0 0.0
2017-Jan-16 05:32S 29°52' E 031°02'0 0.0
2017-Jan-16 04:32S 29°52' E 031°02'0 0.0
2017-Jan-16 03:32S 29°52' E 031°02'0 0.0
2017-Jan-16 02:32S 29°52' E 031°02'0 0.0
2017-Jan-16 01:32S 29°52' E 031°02'0 0.0
2017-Jan-16 00:32S 29°52' E 031°02'0 0.0
2017-Jan-15 23:32S 29°52' E 031°02'0 0.0
2017-Jan-15 22:20S 29°52' E 031°02'0 0.0
2017-Jan-15 21:32S 29°52' E 031°02'0 0.0
2017-Jan-15 20:32S 29°52' E 031°02'1 1.4
2017-Jan-15 19:33S 29°53' E 031°02'1 1.4
2017-Jan-15 18:32S 29°52' E 031°02'1 0.8
2017-Jan-15 17:33S 29°52' E 031°02'1 0.8
2017-Jan-15 16:32S 29°52' E 031°02'0 0.0
2017-Jan-15 15:32S 29°52' E 031°02'0 0.0
2017-Jan-15 14:05S 29°52' E 031°02'0 0.0
2017-Jan-15 13:23S 29°52' E 031°02'1 1.6
2017-Jan-15 12:32S 29°53' E 031°00'1 1.3
2017-Jan-15 11:30S 29°52' E 031°02'0 0.0
2017-Jan-15 09:21S 29°52' E 031°02'0 0.0
2017-Jan-15 08:24S 29°52' E 031°02'0 0.0
2017-Jan-15 07:33S 29°52' E 031°02'1 1.3
2017-Jan-15 06:29S 29°53' E 031°03'1 1.4
2017-Jan-15 05:33S 29°52' E 031°02'0 0.2
2017-Jan-15 04:32S 29°52' E 031°02'0 0.0
2017-Jan-15 03:32S 29°52' E 031°02'0 0.0
2017-Jan-15 02:32S 29°52' E 031°02'1 1.0
2017-Jan-15 01:32S 29°53' E 031°02'1 1.0
2017-Jan-15 00:31S 29°52' E 031°02'0 0.0
2017-Jan-14 23:31S 29°52' E 031°02'0 0.3
2017-Jan-14 22:33S 29°52' E 031°02'0 0.3
2017-Jan-14 21:34S 29°52' E 031°02'1 1.0
2017-Jan-14 20:32S 29°53' E 031°01'1 1.4
2017-Jan-14 19:33S 29°52' E 031°03'1 1.1
2017-Jan-14 18:33S 29°53' E 031°02'1 1.1
2017-Jan-14 17:32S 29°52' E 031°02'0 0.0
2017-Jan-14 16:29S 29°52' E 031°02'0 0.0
2017-Jan-14 15:32S 29°52' E 031°02'0 0.0
2017-Jan-14 14:26S 29°52' E 031°02'0 0.5
2017-Jan-14 13:33S 29°52' E 031°02'0 0.2
2017-Jan-14 12:33S 29°52' E 031°02'1 0.6
2017-Jan-14 11:33S 29°52' E 031°03'1 0.7
2017-Jan-14 10:31S 29°52' E 031°02'0 0.4
2017-Jan-14 09:28S 29°52' E 031°02'1 1.0
2017-Jan-14 08:33S 29°53' E 031°01'1 0.7
2017-Jan-14 07:20S 29°53' E 031°00'2 2.3
2017-Jan-14 06:33S 29°53' E 031°02'1 0.7
2017-Jan-14 05:33S 29°53' E 031°02'1 0.9
2017-Jan-14 04:33S 29°52' E 031°02'0 0.0
2017-Jan-14 03:33S 29°52' E 031°02'0 0.0
2017-Jan-13 23:26S 29°52' E 031°02'0 0.0
2017-Jan-13 22:30S 29°52' E 031°02'0 0.5
2017-Jan-13 21:33S 29°52' E 031°02'1 1.0
2017-Jan-13 20:33S 29°53' E 031°03'2 2.0
2017-Jan-13 19:32S 29°52' E 031°01'2 1.6
2017-Jan-13 18:30S 29°53' E 031°03'1 0.6
2017-Jan-13 17:33S 29°53' E 031°03'1 1.1
2017-Jan-13 16:33S 29°52' E 031°02'0 0.2
2017-Jan-13 15:33S 29°52' E 031°02'1 0.9
2017-Jan-13 14:33S 29°53' E 031°01'1 1.3
2017-Jan-13 13:33S 29°52' E 031°03'0 0.3
2017-Jan-13 12:33S 29°52' E 031°02'0 0.1
2017-Jan-13 11:31S 29°52' E 031°02'1 0.8
2017-Jan-13 10:32S 29°52' E 031°02'0 0.0
2017-Jan-13 09:33S 29°52' E 031°02'1 1.1
2017-Jan-13 08:33S 29°53' E 031°03'2 1.8
2017-Jan-13 07:31S 29°52' E 031°01'1 1.3
2017-Jan-13 06:29S 29°52' E 031°02'0 0.0
2017-Jan-13 05:32S 29°52' E 031°02'0 0.0
2017-Jan-13 04:29S 29°52' E 031°02'0 0.0
2017-Jan-13 03:32S 29°52' E 031°02'0 0.0
2017-Jan-13 02:29S 29°52' E 031°02'0 0.0
2017-Jan-12 23:29S 29°52' E 031°02'1 1.5
2017-Jan-12 22:33S 29°53' E 031°03'1 1.1
2017-Jan-12 21:33S 29°52' E 031°02'0 0.4
2017-Jan-12 20:31S 29°52' E 031°02'1 0.9
2017-Jan-12 19:33S 29°53' E 031°02'1 0.6
2017-Jan-12 18:23S 29°53' E 031°02'1 1.5
2017-Jan-12 17:26S 29°52' E 031°02'0 0.0
2017-Jan-12 15:14S 29°52' E 031°02'0 0.5
2017-Jan-12 14:33S 29°52' E 031°02'1 0.8
2017-Jan-12 13:33S 29°53' E 031°02'1 1.2
2017-Jan-12 12:31S 29°52' E 031°03'1 1.1
2017-Jan-12 11:33S 29°53' E 031°02'1 0.7
2017-Jan-12 10:08S 29°52' E 031°02'0 0.0
2017-Jan-12 08:14S 29°52' E 031°02'2 2.3
2017-Jan-12 07:32S 29°53' E 031°00'1 1.1
2017-Jan-12 06:33S 29°52' E 031°01'1 0.2
2017-Jan-12 04:14S 29°52' E 031°02'0 0.0
2017-Jan-12 03:32S 29°52' E 031°02'0 0.0
2017-Jan-12 02:08S 29°52' E 031°02'0 0.0
2017-Jan-12 01:29S 29°52' E 031°02'0 0.0
2017-Jan-12 00:26S 29°52' E 031°02'0 0.0
2017-Jan-11 22:21S 29°52' E 031°02'0 0.0
2017-Jan-11 21:32S 29°52' E 031°02'0 0.3
2017-Jan-11 20:33S 29°52' E 031°02'1 0.8
2017-Jan-11 19:28S 29°52' E 031°03'1 1.1
2017-Jan-11 18:33S 29°53' E 031°02'1 0.6
2017-Jan-11 17:33S 29°53' E 031°02'1 1.0
2017-Jan-11 16:32S 29°52' E 031°02'0 0.0
2017-Jan-11 15:32S 29°52' E 031°02'0 0.0
2017-Jan-11 14:17S 29°52' E 031°02'0 0.0
2017-Jan-11 13:14S 29°52' E 031°02'0 0.6
2017-Jan-11 12:33S 29°52' E 031°02'0 0.4
2017-Jan-11 11:33S 29°52' E 031°02'0 0.0
2017-Jan-11 08:33S 29°52' E 031°02'1 1.4
2017-Jan-11 07:33S 29°53' E 031°03'2 2.0
2017-Jan-11 06:32S 29°52' E 031°01'1 1.3
2017-Jan-11 05:32S 29°52' E 031°02'0 0.0
2017-Jan-11 04:32S 29°52' E 031°02'0 0.0
2017-Jan-11 03:32S 29°52' E 031°02'0 0.0
2017-Jan-11 02:29S 29°52' E 031°02'0 0.0
2017-Jan-11 01:26S 29°52' E 031°02'0 0.0
2017-Jan-11 00:32S 29°52' E 031°02'0 0.0
2017-Jan-10 21:32S 29°52' E 031°02'0 0.0
2017-Jan-10 20:32S 29°52' E 031°02'0 0.0
2017-Jan-10 19:29S 29°52' E 031°02'1 0.8
2017-Jan-10 18:33S 29°52' E 031°02'1 0.8
2017-Jan-10 17:30S 29°52' E 031°02'0 0.0
2017-Jan-10 16:33S 29°52' E 031°02'0 0.0
2017-Jan-10 15:34S 29°52' E 031°02'1 1.3
2017-Jan-10 14:28S 29°53' E 031°00'1 1.3
2017-Jan-10 13:20S 29°53' E 031°02'1 1.2
2017-Jan-10 12:33S 29°53' E 031°03'1 1.3
2017-Jan-10 11:33S 29°52' E 031°02'0 0.1
2017-Jan-10 10:33S 29°52' E 031°02'0 0.0
2017-Jan-10 09:33S 29°52' E 031°02'0 0.0
2017-Jan-10 08:33S 29°52' E 031°02'0 0.1
2017-Jan-10 07:32S 29°52' E 031°02'0 0.0
2017-Jan-10 06:32S 29°52' E 031°02'0 0.0
2017-Jan-10 05:32S 29°52' E 031°02'0 0.0
2017-Jan-10 04:32S 29°52' E 031°02'0 0.0
2017-Jan-10 03:32S 29°52' E 031°02'0 0.0
2017-Jan-10 02:08S 29°52' E 031°02'0 0.0
2017-Jan-10 01:32S 29°52' E 031°02'0 0.0
2017-Jan-10 00:26S 29°52' E 031°02'1 1.1
2017-Jan-09 23:33S 29°53' E 031°01'1 0.8
2017-Jan-09 22:14S 29°52' E 031°02'1 0.9
2017-Jan-09 21:24S 29°52' E 031°02'1 0.2
2017-Jan-09 18:25S 29°52' E 031°02'1 1.4
2017-Jan-09 17:33S 29°53' E 031°03'1 1.1
2017-Jan-09 16:30S 29°52' E 031°02'0 0.0
2017-Jan-09 15:30S 29°52' E 031°02'0 0.0
2017-Jan-09 14:30S 29°52' E 031°02'1 1.3
2017-Jan-09 13:31S 29°53' E 031°01'1 1.3
2017-Jan-09 12:34S 29°52' E 031°02'0 0.0
2017-Jan-09 09:22S 29°52' E 031°02'0 0.0
2017-Jan-09 07:28S 29°52' E 031°02'0 0.0
2017-Jan-09 05:28S 29°52' E 031°02'0 0.0
2017-Jan-09 04:31S 29°52' E 031°02'0 0.0
2017-Jan-09 03:31S 29°52' E 031°02'0 0.0
2017-Jan-09 02:31S 29°52' E 031°02'0 0.0
2017-Jan-09 01:31S 29°52' E 031°02'0 0.0
2017-Jan-09 00:31S 29°52' E 031°02'0 0.0
2017-Jan-08 23:28S 29°52' E 031°02'1 0.7
2017-Jan-08 21:33S 29°53' E 031°03'1 1.3
2017-Jan-08 20:32S 29°52' E 031°02'0 0.0
2017-Jan-08 19:26S 29°52' E 031°02'0 0.0
2017-Jan-08 18:26S 29°52' E 031°02'1 1.5
2017-Jan-08 17:33S 29°53' E 031°03'1 1.2
2017-Jan-08 16:27S 29°52' E 031°02'0 0.0
2017-Jan-08 15:30S 29°52' E 031°02'0 0.0
2017-Jan-08 14:21S 29°52' E 031°02'0 0.0
2017-Jan-08 13:30S 29°52' E 031°02'0 0.0
2017-Jan-08 12:32S 29°52' E 031°02'1 1.4
2017-Jan-08 11:31S 29°53' E 031°02'1 0.6
2017-Jan-08 10:33S 29°53' E 031°01'1 0.9
2017-Jan-08 09:33S 29°52' E 031°02'1 0.4
2017-Jan-08 08:04S 29°52' E 031°02'  

Dump ship's entire track history